createdAt,value
2022-12-11T00:00:53.621Z,11.90
2022-12-11T00:03:20.869Z,11.70
2022-12-11T00:05:47.814Z,14.47
2022-12-11T00:08:15.890Z,12.20
2022-12-11T00:10:50.053Z,6.53
2022-12-11T00:13:17.057Z,4.73
2022-12-11T00:15:44.017Z,14.70
2022-12-11T00:18:13.925Z,9.27
2022-12-11T00:20:41.043Z,9.17
2022-12-11T00:23:08.371Z,10.60
2022-12-11T00:25:35.283Z,18.43
2022-12-11T00:28:02.167Z,17.87
2022-12-11T00:30:29.113Z,16.37
2022-12-11T00:32:56.060Z,16.03
2022-12-11T00:35:22.962Z,15.40
2022-12-11T00:37:49.776Z,18.13
2022-12-11T00:40:16.794Z,16.43
2022-12-11T00:42:43.624Z,15.77
2022-12-11T00:45:10.961Z,16.87
2022-12-11T00:47:38.159Z,17.90
2022-12-11T00:50:05.710Z,13.80
2022-12-11T00:52:32.712Z,19.60
2022-12-11T00:54:59.590Z,16.07
2022-12-11T00:57:26.532Z,15.40
2022-12-11T00:59:53.453Z,17.57
2022-12-11T01:02:20.407Z,17.03
2022-12-11T01:04:47.299Z,17.80
2022-12-11T01:07:14.214Z,15.87
2022-12-11T01:09:59.425Z,14.57
2022-12-11T01:12:28.478Z,16.97
2022-12-11T01:14:55.514Z,16.37
2022-12-11T01:17:22.388Z,13.77
2022-12-11T01:19:49.289Z,14.97
2022-12-11T01:22:16.212Z,13.87
2022-12-11T01:24:43.169Z,13.23
2022-12-11T01:27:10.059Z,14.43
2022-12-11T01:29:36.998Z,14.33
2022-12-11T01:32:04.023Z,12.60
2022-12-11T01:34:31.997Z,12.87
2022-12-11T01:36:59.025Z,15.27
2022-12-11T01:39:26.016Z,14.67
2022-12-11T01:42:01.042Z,12.70
2022-12-11T01:44:30.935Z,14.70
2022-12-11T01:46:58.575Z,14.47
2022-12-11T01:49:28.923Z,15.80
2022-12-11T01:52:08.852Z,14.00
2022-12-11T01:54:35.950Z,11.73
2022-12-11T01:57:06.833Z,14.00
2022-12-11T01:59:37.588Z,11.97
2022-12-11T02:02:19.624Z,12.90
2022-12-11T02:04:47.184Z,15.30
2022-12-11T02:07:14.472Z,8.00
2022-12-11T02:09:43.812Z,7.13
2022-12-11T02:12:24.494Z,3.67
2022-12-11T02:15:00.630Z,6.27
2022-12-11T02:17:52.705Z,4.77
2022-12-11T02:20:35.297Z,7.40
2022-12-11T02:23:29.568Z,12.23
2022-12-11T02:26:08.700Z,11.43
2022-12-11T02:28:51.247Z,10.07
2022-12-11T02:31:24.215Z,14.70
2022-12-11T02:34:07.084Z,12.20
2022-12-11T02:36:37.782Z,12.90
2022-12-11T02:39:05.666Z,17.00
2022-12-11T02:41:33.956Z,13.57
2022-12-11T02:44:03.534Z,14.87
2022-12-11T02:46:32.281Z,12.87
2022-12-11T02:48:59.485Z,14.53
2022-12-11T02:51:30.479Z,12.20
2022-12-11T02:53:59.386Z,13.10
2022-12-11T02:57:12.627Z,15.17
2022-12-11T02:59:42.966Z,11.60
2022-12-11T03:02:12.384Z,12.50
2022-12-11T03:04:43.501Z,11.83
2022-12-11T03:07:15.463Z,11.20
2022-12-11T03:09:44.056Z,14.20
2022-12-11T03:12:15.111Z,11.17
2022-12-11T03:14:42.904Z,15.37
2022-12-11T03:17:18.130Z,12.30
2022-12-11T03:20:00.313Z,16.20
2022-12-11T03:22:47.337Z,11.37
2022-12-11T03:25:21.609Z,13.03
2022-12-11T03:28:12.076Z,13.10
2022-12-11T03:30:40.171Z,12.97
2022-12-11T03:33:22.719Z,13.63
2022-12-11T03:35:54.875Z,13.47
2022-12-11T03:38:27.976Z,12.87
2022-12-11T03:40:59.055Z,12.70
2022-12-11T03:43:28.673Z,13.33
2022-12-11T03:45:56.939Z,13.50
2022-12-11T03:48:30.604Z,12.37
2022-12-11T03:51:00.608Z,14.73
2022-12-11T03:53:28.408Z,13.90
2022-12-11T03:55:58.224Z,15.10
2022-12-11T03:58:25.378Z,13.67
2022-12-11T04:00:52.334Z,13.73
2022-12-11T04:03:19.240Z,15.60
2022-12-11T04:05:49.019Z,14.70
2022-12-11T04:08:17.093Z,15.63
2022-12-11T04:10:44.497Z,13.00
2022-12-11T04:13:11.682Z,12.63
2022-12-11T04:15:39.994Z,9.77
2022-12-11T04:18:26.516Z,15.27
2022-12-11T04:21:13.358Z,11.73
2022-12-11T04:23:58.948Z,14.37
2022-12-11T04:26:26.230Z,12.50
2022-12-11T04:28:53.243Z,13.83
2022-12-11T04:31:22.411Z,11.07
2022-12-11T04:33:49.967Z,14.53
2022-12-11T04:36:17.463Z,12.07
2022-12-11T04:38:44.450Z,11.87
2022-12-11T04:41:14.094Z,14.27
2022-12-11T04:43:41.646Z,11.13
2022-12-11T04:46:14.348Z,11.03
2022-12-11T04:48:41.493Z,12.80
2022-12-11T04:51:09.411Z,12.90
2022-12-11T04:53:37.062Z,14.33
2022-12-11T04:56:09.113Z,13.90
2022-12-11T04:58:37.123Z,15.57
2022-12-11T05:01:15.376Z,15.30
2022-12-11T05:03:43.018Z,15.93
2022-12-11T05:06:11.009Z,13.83
2022-12-11T05:08:40.364Z,14.97
2022-12-11T05:11:10.536Z,11.83
2022-12-11T05:13:37.994Z,12.47
2022-12-11T05:16:07.678Z,12.20
2022-12-11T05:18:35.496Z,17.10
2022-12-11T05:21:05.678Z,14.03
2022-12-11T05:23:32.691Z,11.77
2022-12-11T05:26:02.318Z,11.43
2022-12-11T05:28:32.479Z,9.80
2022-12-11T05:31:05.815Z,10.30
2022-12-11T05:33:32.960Z,11.27
2022-12-11T05:36:00.802Z,10.37
2022-12-11T05:38:27.830Z,10.13
2022-12-11T05:41:03.518Z,10.43
2022-12-11T05:43:33.423Z,10.37
2022-12-11T05:46:13.090Z,12.97
2022-12-11T05:48:40.789Z,10.73
2022-12-11T05:51:08.898Z,10.23
2022-12-11T05:53:37.437Z,12.57
2022-12-11T05:56:06.705Z,8.77
2022-12-11T05:58:35.220Z,8.10
2022-12-11T06:01:06.908Z,11.37
2022-12-11T06:03:33.785Z,11.33
2022-12-11T06:06:06.024Z,10.17
2022-12-11T06:08:33.606Z,14.70
2022-12-11T06:11:00.555Z,10.63
2022-12-11T06:13:27.830Z,11.33
2022-12-11T06:15:54.699Z,13.83
2022-12-11T06:18:22.074Z,14.23
2022-12-11T06:20:49.062Z,11.63
2022-12-11T06:23:16.007Z,10.93
2022-12-11T06:25:42.974Z,15.50
2022-12-11T06:28:09.993Z,15.83
2022-12-11T06:30:38.840Z,13.73
2022-12-11T06:33:06.936Z,14.40
2022-12-11T06:35:38.760Z,12.87
2022-12-11T06:38:09.382Z,16.77
2022-12-11T06:40:36.371Z,15.93
2022-12-11T06:43:03.582Z,14.80
2022-12-11T06:45:30.932Z,17.17
2022-12-11T06:47:58.880Z,14.23
2022-12-11T06:50:26.257Z,14.03
2022-12-11T06:52:53.359Z,17.77
2022-12-11T06:55:20.389Z,15.07
2022-12-11T06:57:47.438Z,13.57
2022-12-11T07:00:16.137Z,14.63
2022-12-11T07:02:43.061Z,12.67
2022-12-11T07:05:10.287Z,12.23
2022-12-11T07:07:37.426Z,10.37
2022-12-11T07:10:08.383Z,12.57
2022-12-11T07:12:36.010Z,14.63
2022-12-11T07:15:04.585Z,11.97
2022-12-11T07:17:31.657Z,12.03
2022-12-11T07:19:58.567Z,14.87
2022-12-11T07:22:25.492Z,13.00
2022-12-11T07:24:52.598Z,11.53
2022-12-11T07:27:19.719Z,11.83
2022-12-11T07:29:46.970Z,13.27
2022-12-11T07:32:14.585Z,13.40
2022-12-11T07:34:41.784Z,12.67
2022-12-11T07:37:09.202Z,12.60
2022-12-11T07:39:36.183Z,14.23
2022-12-11T07:42:03.251Z,18.63
2022-12-11T07:44:30.265Z,11.70
2022-12-11T07:46:57.410Z,13.13
2022-12-11T07:49:24.764Z,18.70
2022-12-11T07:51:52.127Z,14.53
2022-12-11T07:54:21.009Z,14.17
2022-12-11T07:56:53.250Z,15.23
2022-12-11T07:59:21.236Z,13.80
2022-12-11T08:01:48.574Z,14.13
2022-12-11T08:04:15.969Z,12.20
2022-12-11T08:06:43.676Z,14.60
2022-12-11T08:09:20.405Z,13.47
2022-12-11T08:11:52.240Z,13.20
2022-12-11T08:14:20.207Z,11.47
2022-12-11T08:16:48.010Z,14.27
2022-12-11T08:19:18.404Z,11.13
2022-12-11T08:21:45.495Z,12.07
2022-12-11T08:24:12.514Z,14.73
2022-12-11T08:26:39.648Z,19.33
2022-12-11T08:29:06.661Z,14.40
2022-12-11T08:31:33.549Z,12.40
2022-12-11T08:34:00.547Z,13.93
2022-12-11T08:36:27.896Z,12.87
2022-12-11T08:38:56.558Z,13.73
2022-12-11T08:41:30.192Z,13.23
2022-12-11T08:43:58.774Z,14.20
2022-12-11T08:46:28.378Z,15.73
2022-12-11T08:48:56.268Z,15.80
2022-12-11T08:51:26.138Z,14.37
2022-12-11T08:53:56.461Z,17.67
2022-12-11T08:56:24.420Z,20.43
2022-12-11T08:58:52.833Z,22.30
2022-12-11T09:01:22.636Z,19.57
2022-12-11T09:03:51.035Z,15.43
2022-12-11T09:06:20.509Z,18.73
2022-12-11T09:08:52.487Z,21.37
2022-12-11T09:11:28.998Z,14.23
2022-12-11T09:13:56.321Z,16.63
2022-12-11T09:16:25.550Z,16.97
2022-12-11T09:18:54.839Z,15.93
2022-12-11T09:21:27.529Z,16.07
2022-12-11T09:24:00.476Z,19.60
2022-12-11T09:26:29.147Z,15.77
2022-12-11T09:28:56.658Z,16.07
2022-12-11T09:31:29.791Z,15.23
2022-12-11T09:34:00.769Z,16.87
2022-12-11T09:36:28.545Z,21.63
2022-12-11T09:38:55.848Z,16.77
2022-12-11T09:41:22.901Z,19.30
2022-12-11T09:44:08.304Z,16.77
2022-12-11T09:46:36.493Z,14.50
2022-12-11T09:49:11.857Z,14.10
2022-12-11T09:51:52.156Z,15.27
2022-12-11T09:54:19.159Z,21.23
2022-12-11T09:56:58.411Z,19.93
2022-12-11T09:59:48.104Z,17.83
2022-12-11T10:02:22.283Z,22.07
2022-12-11T10:04:59.088Z,18.73
2022-12-11T10:07:48.508Z,19.53
2022-12-11T10:10:27.720Z,16.07
2022-12-11T10:13:15.849Z,14.97
2022-12-11T10:15:54.863Z,15.93
2022-12-11T10:18:25.586Z,15.10
2022-12-11T10:20:53.802Z,12.17
2022-12-11T10:23:27.409Z,14.67
2022-12-11T10:26:07.873Z,13.93
2022-12-11T10:28:35.807Z,15.37
2022-12-11T10:31:05.959Z,14.73
2022-12-11T10:34:10.125Z,14.07
2022-12-11T10:36:39.737Z,13.57
2022-12-11T10:39:19.253Z,13.43
2022-12-11T10:41:54.729Z,13.73
2022-12-11T10:44:22.988Z,11.80
2022-12-11T10:47:18.054Z,13.13
2022-12-11T10:49:59.551Z,14.10
2022-12-11T10:52:32.694Z,15.60
2022-12-11T10:55:04.218Z,9.67
2022-12-11T10:57:39.188Z,11.53
2022-12-11T11:00:08.863Z,10.53
2022-12-11T11:02:41.242Z,8.20
2022-12-11T11:05:34.910Z,10.07
2022-12-11T11:08:15.679Z,7.57
2022-12-11T11:10:56.915Z,7.27
2022-12-11T11:13:25.994Z,9.80
2022-12-11T11:16:02.822Z,7.80
2022-12-11T11:18:31.959Z,10.60
2022-12-11T11:20:59.586Z,7.67
2022-12-11T11:23:27.193Z,8.57
2022-12-11T11:26:06.495Z,8.73
2022-12-11T11:28:39.645Z,8.13
2022-12-11T11:31:15.095Z,9.60
2022-12-11T11:34:10.515Z,8.30
2022-12-11T11:36:38.333Z,9.87
2022-12-11T11:39:20.125Z,13.00
2022-12-11T11:42:01.701Z,14.33
2022-12-11T11:44:38.592Z,8.70
2022-12-11T11:47:35.378Z,9.17
2022-12-11T11:50:30.086Z,8.87
2022-12-11T11:53:11.924Z,16.90
2022-12-11T11:56:27.492Z,5.37
2022-12-11T11:59:03.639Z,8.93
2022-12-11T12:01:30.973Z,9.27
2022-12-11T12:03:58.547Z,8.30
2022-12-11T12:06:43.748Z,7.37
2022-12-11T12:09:32.450Z,8.60
2022-12-11T12:12:09.507Z,10.97
2022-12-11T12:14:52.768Z,9.67
2022-12-11T12:17:56.039Z,10.80
2022-12-11T12:21:03.781Z,11.43
2022-12-11T12:23:48.822Z,11.90
2022-12-11T12:26:34.375Z,10.97
2022-12-11T12:29:01.329Z,10.20
2022-12-11T12:31:50.032Z,15.67
2022-12-11T12:34:32.124Z,11.73
2022-12-11T12:37:17.343Z,9.47
2022-12-11T12:39:59.478Z,11.47
2022-12-11T12:42:29.175Z,6.67
2022-12-11T12:45:05.043Z,8.67
2022-12-11T12:47:35.191Z,9.77
2022-12-11T12:50:03.616Z,7.40
2022-12-11T12:52:51.190Z,6.23
2022-12-11T12:55:24.010Z,8.57
2022-12-11T12:57:57.597Z,6.63
2022-12-11T13:00:27.968Z,8.40
2022-12-11T13:02:56.246Z,4.40
2022-12-11T13:05:30.073Z,6.67
2022-12-11T13:08:00.807Z,4.50
2022-12-11T13:10:50.971Z,5.47
2022-12-11T13:14:05.337Z,5.40
2022-12-11T13:16:43.525Z,6.57
2022-12-11T13:19:25.782Z,5.30
2022-12-11T13:22:04.792Z,6.43
2022-12-11T13:24:33.522Z,6.63
2022-12-11T13:27:41.798Z,4.57
2022-12-11T13:30:14.861Z,4.80
2022-12-11T13:33:03.745Z,7.07
2022-12-11T13:35:33.077Z,5.87
2022-12-11T13:38:18.458Z,5.27
2022-12-11T13:40:47.011Z,4.47
2022-12-11T13:43:30.200Z,9.87
2022-12-11T13:46:00.694Z,5.47
2022-12-11T13:48:50.350Z,4.73
2022-12-11T13:51:20.511Z,6.80
2022-12-11T13:53:47.412Z,4.73
2022-12-11T13:56:21.112Z,6.63
2022-12-11T13:58:48.826Z,7.53
2022-12-11T14:01:32.642Z,5.23
2022-12-11T14:04:02.625Z,5.83
2022-12-11T14:06:31.112Z,8.77
2022-12-11T14:09:01.676Z,5.90
2022-12-11T14:11:36.990Z,7.73
2022-12-11T14:14:08.138Z,6.67
2022-12-11T14:16:35.149Z,9.23
2022-12-11T14:19:09.849Z,5.87
2022-12-11T14:21:37.154Z,7.17
2022-12-11T14:24:06.567Z,9.47
2022-12-11T14:26:38.643Z,6.87
2022-12-11T14:29:06.818Z,6.90
2022-12-11T14:31:43.768Z,7.73
2022-12-11T14:34:45.025Z,8.93
2022-12-11T14:37:15.880Z,9.03
2022-12-11T14:40:00.094Z,6.40
2022-12-11T14:42:38.100Z,6.40
2022-12-11T14:45:25.744Z,6.53
2022-12-11T14:47:54.560Z,10.60
2022-12-11T14:50:23.176Z,7.50
2022-12-11T14:53:00.258Z,5.90
2022-12-11T14:55:30.479Z,8.60
2022-12-11T14:58:00.575Z,7.13
2022-12-11T15:00:33.378Z,7.63
2022-12-11T15:03:12.666Z,9.90
2022-12-11T15:05:51.455Z,7.37
2022-12-11T15:08:25.040Z,4.73
2022-12-11T15:10:59.734Z,8.67
2022-12-11T15:13:26.683Z,5.33
2022-12-11T15:15:55.141Z,7.33
2022-12-11T15:18:25.894Z,5.47
2022-12-11T15:21:02.029Z,8.70
2022-12-11T15:23:30.027Z,7.53
2022-12-11T15:25:59.987Z,8.80
2022-12-11T15:28:36.121Z,8.33
2022-12-11T15:31:22.241Z,8.10
2022-12-11T15:33:49.489Z,6.33
2022-12-11T15:36:31.113Z,7.03
2022-12-11T15:38:58.467Z,8.50
2022-12-11T15:41:26.035Z,12.20
2022-12-11T15:43:59.062Z,8.60
2022-12-11T15:46:26.469Z,10.00
2022-12-11T15:48:56.729Z,10.80
2022-12-11T15:51:25.257Z,8.93
2022-12-11T15:53:52.040Z,7.83
2022-12-11T15:56:19.166Z,6.63
2022-12-11T15:58:48.145Z,9.57
2022-12-11T16:01:15.276Z,8.20
2022-12-11T16:03:42.160Z,8.30
2022-12-11T16:06:13.365Z,8.47
2022-12-11T16:08:40.231Z,9.50
2022-12-11T16:11:07.190Z,9.53
2022-12-11T16:13:34.338Z,11.13
2022-12-11T16:16:01.365Z,10.33
2022-12-11T16:18:28.372Z,9.30
2022-12-11T16:20:55.385Z,9.27
2022-12-11T16:23:22.508Z,8.73
2022-12-11T16:25:50.103Z,8.33
2022-12-11T16:28:20.781Z,6.83
2022-12-11T16:30:47.873Z,7.43
2022-12-11T16:33:15.148Z,7.03
2022-12-11T16:35:43.001Z,7.83
2022-12-11T16:38:11.091Z,9.87
2022-12-11T16:40:38.322Z,8.20
2022-12-11T16:43:05.774Z,7.33
2022-12-11T16:45:33.258Z,5.60
2022-12-11T16:48:04.109Z,7.17
2022-12-11T16:50:32.272Z,6.13
2022-12-11T16:52:59.615Z,6.97
2022-12-11T16:55:26.512Z,4.07
2022-12-11T16:57:54.178Z,4.67
2022-12-11T17:00:21.187Z,9.40
2022-12-11T17:02:48.187Z,8.57
2022-12-11T17:05:15.531Z,8.83
2022-12-11T17:07:42.588Z,9.83
2022-12-11T17:10:09.927Z,9.07
2022-12-11T17:12:37.030Z,9.50
2022-12-11T17:15:04.236Z,8.00
2022-12-11T17:17:31.597Z,8.33
2022-12-11T17:19:58.659Z,9.63
2022-12-11T17:22:25.808Z,11.00
2022-12-11T17:24:52.926Z,11.73
2022-12-11T17:27:20.104Z,10.20
2022-12-11T17:29:49.497Z,12.83
2022-12-11T17:32:17.573Z,12.97
2022-12-11T17:34:45.719Z,12.47
2022-12-11T17:37:12.964Z,10.50
2022-12-11T17:39:40.057Z,16.07
2022-12-11T17:42:07.476Z,9.37
2022-12-11T17:44:34.548Z,9.63
2022-12-11T17:47:06.092Z,16.20
2022-12-11T17:49:36.278Z,23.17
2022-12-11T17:52:03.511Z,18.77
2022-12-11T17:54:30.452Z,19.77
2022-12-11T17:56:57.541Z,15.53
2022-12-11T17:59:24.546Z,19.97
2022-12-11T18:01:51.538Z,11.50
2022-12-11T18:04:18.796Z,20.13
2022-12-11T18:06:45.674Z,16.07
2022-12-11T18:09:12.789Z,13.40
2022-12-11T18:11:39.919Z,13.07
2022-12-11T18:14:07.856Z,11.77
2022-12-11T18:16:40.279Z,21.87
2022-12-11T18:19:08.442Z,21.23
2022-12-11T18:21:40.485Z,36.57
2022-12-11T18:24:08.732Z,22.47
2022-12-11T18:26:37.559Z,16.83
2022-12-11T18:29:05.311Z,30.83
2022-12-11T18:31:33.739Z,12.70
2022-12-11T18:34:05.284Z,13.07
2022-12-11T18:36:33.546Z,14.03
2022-12-11T18:39:00.707Z,13.87
2022-12-11T18:41:27.772Z,17.40
2022-12-11T18:43:55.287Z,15.53
2022-12-11T18:46:22.268Z,13.03
2022-12-11T18:48:50.526Z,13.10
2022-12-11T18:51:23.716Z,12.40
2022-12-11T18:53:51.205Z,13.90
2022-12-11T18:56:19.883Z,15.10
2022-12-11T18:58:47.290Z,13.07
2022-12-11T19:01:25.005Z,11.47
2022-12-11T19:04:00.435Z,11.43
2022-12-11T19:06:30.419Z,15.37
2022-12-11T19:08:57.940Z,12.80
2022-12-11T19:11:27.510Z,12.13
2022-12-11T19:13:56.887Z,13.07
2022-12-11T19:16:27.103Z,11.50
2022-12-11T19:18:54.161Z,11.10
2022-12-11T19:21:21.397Z,10.17
2022-12-11T19:23:48.611Z,13.17
2022-12-11T19:26:18.508Z,13.23
2022-12-11T19:28:46.781Z,11.90
2022-12-11T19:31:16.989Z,13.60
2022-12-11T19:33:44.337Z,9.10
2022-12-11T19:36:16.782Z,9.57
2022-12-11T19:38:45.378Z,10.63
2022-12-11T19:41:24.352Z,10.17
2022-12-11T19:43:51.859Z,13.20
2022-12-11T19:46:19.901Z,10.30
2022-12-11T19:48:50.113Z,9.97
2022-12-11T19:51:20.521Z,9.83
2022-12-11T19:53:48.790Z,10.77
2022-12-11T19:56:17.022Z,13.23
2022-12-11T19:58:44.115Z,10.80
2022-12-11T20:01:28.967Z,13.03
2022-12-11T20:03:59.550Z,9.33
2022-12-11T20:06:35.610Z,10.57
2022-12-11T20:09:03.562Z,6.17
2022-12-11T20:11:31.940Z,10.90
2022-12-11T20:14:00.415Z,9.37
2022-12-11T20:16:53.714Z,11.70
2022-12-11T20:19:15.688Z,8.90
2022-12-11T20:21:43.743Z,14.40
2022-12-11T20:24:11.526Z,17.33
2022-12-11T20:26:39.042Z,10.37
2022-12-11T20:29:08.117Z,15.27
2022-12-11T20:31:36.252Z,15.97
2022-12-11T20:34:03.827Z,13.53
2022-12-11T20:36:30.983Z,14.20
2022-12-11T20:38:57.935Z,14.70
2022-12-11T20:41:25.855Z,12.87
2022-12-11T20:43:55.951Z,19.60
2022-12-11T20:46:26.621Z,19.23
2022-12-11T20:48:55.603Z,16.10
2022-12-11T20:51:26.292Z,16.60
2022-12-11T20:53:59.332Z,37.10
2022-12-11T20:56:29.002Z,56.13
2022-12-11T20:58:56.293Z,33.67
2022-12-11T21:01:24.849Z,16.50
2022-12-11T21:03:53.310Z,13.80
2022-12-11T21:06:32.060Z,15.37
2022-12-11T21:09:08.181Z,14.23
2022-12-11T21:11:35.371Z,9.47
2022-12-11T21:14:02.535Z,11.10
2022-12-11T21:16:29.573Z,13.70
2022-12-11T21:18:57.621Z,13.73
2022-12-11T21:21:25.561Z,11.23
2022-12-11T21:23:52.514Z,13.07
2022-12-11T21:26:19.879Z,10.23
2022-12-11T21:28:46.932Z,13.23
2022-12-11T21:31:16.203Z,10.77
2022-12-11T21:33:43.228Z,11.63
2022-12-11T21:36:12.734Z,12.87
2022-12-11T21:38:41.710Z,10.93
2022-12-11T21:41:10.803Z,13.13
2022-12-11T21:43:43.379Z,68.00
2022-12-11T21:46:27.295Z,16.93
2022-12-11T21:48:54.856Z,19.97
2022-12-11T21:51:32.579Z,32.37
2022-12-11T21:54:05.313Z,48.17
2022-12-11T21:56:32.484Z,50.50
2022-12-11T21:59:01.295Z,46.33
2022-12-11T22:01:35.174Z,21.80
2022-12-11T22:04:03.269Z,12.03
2022-12-11T22:06:30.292Z,15.47
2022-12-11T22:08:57.343Z,12.27
2022-12-11T22:11:28.111Z,9.30
2022-12-11T22:13:55.161Z,12.70
2022-12-11T22:16:22.560Z,13.47
2022-12-11T22:18:49.491Z,10.93
2022-12-11T22:21:16.932Z,13.60
2022-12-11T22:23:43.816Z,11.80
2022-12-11T22:26:16.568Z,14.23
2022-12-11T22:28:43.507Z,14.80
2022-12-11T22:31:12.403Z,25.40
2022-12-11T22:33:39.476Z,15.90
2022-12-11T22:36:07.225Z,12.63
2022-12-11T22:38:34.620Z,21.70
2022-12-11T22:41:03.094Z,17.27
2022-12-11T22:43:30.037Z,13.17
2022-12-11T22:45:57.135Z,12.27
2022-12-11T22:48:27.301Z,15.63
2022-12-11T22:50:54.797Z,14.57
2022-12-11T22:53:21.706Z,14.73
2022-12-11T22:55:48.760Z,14.93
2022-12-11T22:58:21.398Z,21.83
2022-12-11T23:00:48.846Z,18.97
2022-12-11T23:03:16.033Z,18.33
2022-12-11T23:05:43.505Z,17.03
2022-12-11T23:08:10.459Z,16.17
2022-12-11T23:10:40.955Z,14.67
2022-12-11T23:13:08.405Z,14.57
2022-12-11T23:15:35.343Z,10.77
2022-12-11T23:18:02.241Z,53.43
2022-12-11T23:20:29.256Z,37.10
2022-12-11T23:22:56.191Z,23.57
2022-12-11T23:25:23.145Z,12.67
2022-12-11T23:27:50.097Z,15.87
2022-12-11T23:30:17.014Z,12.17
2022-12-11T23:32:43.967Z,14.77
2022-12-11T23:35:11.196Z,18.30
2022-12-11T23:37:38.301Z,18.93
2022-12-11T23:40:05.880Z,16.97
2022-12-11T23:42:33.764Z,12.80
2022-12-11T23:45:00.633Z,11.43
2022-12-11T23:47:27.489Z,12.60
2022-12-11T23:49:54.483Z,14.90
2022-12-11T23:52:22.624Z,12.93
2022-12-11T23:54:49.593Z,15.13
2022-12-11T23:57:16.486Z,13.17
2022-12-11T23:59:43.472Z,9.90
